Airfield :
LOGIN :

Register | Disclaimer

   EN    FR    IT 

 










Legend :    VFR   Marginal VFR   IFR   Intensive IFR   Very Intensive IFR
Visi :
Ceiling :
>= 8 km
>= 3000ft
5 to 8 km
1000 to 3000 ft
1500m to 5 km
500 to 1000 ft
800 to 1500m
200 to 500 ft
< 800m
< 200 ft
Symbols :   Thunderstorms  Fog  Heavy snow  Heavy precipitations  Wind > 20 kt
SIGMETs :     Misc.  Thunderstorms  Icing  Turbulence  Mountain Waves  Volcanic Ashes







- Airport Elevation : 289 ft
- IATA code : ZAD


LDZD - Zadar

CURRENT METAR :
  • 222130Z 14003KT CAVOK 11/10 Q1015 NOSIG

EXPIRED METARs :
  • 222100Z 09003KT 060V120 CAVOK 11/10 Q1015 NOSIG
  • 222030Z 05004KT CAVOK 12/11 Q1015 NOSIG
  • 222000Z 08002KT CAVOK 11/11 Q1015 NOSIG
  • 221930Z VRB02KT CAVOK 11/10 Q1015 NOSIG
  • 221900Z 11003KT 9999 FEW040 11/10 Q1015 NOSIG

TAF TAF LDZD
Valid from the 22 at 18:00 until the 23 at 18:00 UTC


221725Z 2218/2318 12005KT 9999 FEW040 TX19/2312Z TN09/2303Z
PROB30
TEMPO 2222/2304 3000 BR
BECMG 2307/2309 15010KT
BECMG 2315/2317 12005KT
No reported NOTAMs for that airfield.



MET'MAP, your aeronautical weather chart ! - Copyright ORBIFLY December 2007 - Disclaimer

ORBIFLY MET'MAP TEAM :

Programming & Development : Alexandra Zaïnal
Concept & Development : Baudouin d'Aumeries
Co-Development & Prog : Marc-Olivier Méhu
Technical & hardware support : Manuel Goepfert

Contact : metmap@orbifly.com




SOURCES & CREDITS :

   NOAA